createdAt,value
2022-11-13T00:00:52.210Z,1020.78
2022-11-13T00:01:52.192Z,1020.76
2022-11-13T00:02:52.216Z,1020.78
2022-11-13T00:03:52.150Z,1020.75
2022-11-13T00:04:52.128Z,1020.75
2022-11-13T00:05:52.107Z,1020.75
2022-11-13T00:06:57.790Z,1020.74
2022-11-13T00:07:52.069Z,1020.73
2022-11-13T00:08:52.040Z,1020.73
2022-11-13T00:09:52.028Z,1020.73
2022-11-13T00:10:51.998Z,1020.72
2022-11-13T00:11:51.981Z,1020.74
2022-11-13T00:12:51.975Z,1020.71
2022-11-13T00:13:51.936Z,1020.75
2022-11-13T00:14:51.914Z,1020.74
2022-11-13T00:15:51.896Z,1020.70
2022-11-13T00:16:51.873Z,1020.72
2022-11-13T00:17:51.856Z,1020.69
2022-11-13T00:18:51.836Z,1020.73
2022-11-13T00:19:51.812Z,1020.72
2022-11-13T00:20:51.792Z,1020.68
2022-11-13T00:21:51.771Z,1020.68
2022-11-13T00:22:51.861Z,1020.68
2022-11-13T00:23:51.754Z,1020.65
2022-11-13T00:24:51.708Z,1020.65
2022-11-13T00:25:51.693Z,1020.63
2022-11-13T00:26:51.664Z,1020.64
2022-11-13T00:27:51.647Z,1020.64
2022-11-13T00:28:51.624Z,1020.59
2022-11-13T00:29:51.602Z,1020.57
2022-11-13T00:30:51.580Z,1020.59
2022-11-13T00:31:51.565Z,1020.56
2022-11-13T00:32:51.545Z,1020.58
2022-11-13T00:34:51.498Z,1020.58
2022-11-13T00:35:51.476Z,1020.53
2022-11-13T00:36:51.451Z,1020.57
2022-11-13T00:37:51.436Z,1020.55
2022-11-13T00:38:51.524Z,1020.51
2022-11-13T00:39:54.501Z,1020.48
2022-11-13T00:40:51.373Z,1020.51
2022-11-13T00:41:51.354Z,1020.53
2022-11-13T00:42:51.327Z,1020.52
2022-11-13T00:43:51.306Z,1020.54
2022-11-13T00:44:51.290Z,1020.50
2022-11-13T00:45:51.268Z,1020.49
2022-11-13T00:46:51.245Z,1020.51
2022-11-13T00:47:51.222Z,1020.50
2022-11-13T00:48:51.200Z,1020.43
2022-11-13T00:49:51.181Z,1020.45
2022-11-13T00:50:51.158Z,1020.43
2022-11-13T00:51:51.147Z,1020.41
2022-11-13T00:52:51.120Z,1020.44
2022-11-13T00:53:51.094Z,1020.44
2022-11-13T00:54:51.191Z,1020.47
2022-11-13T00:55:51.053Z,1020.44
2022-11-13T00:56:51.031Z,1020.44
2022-11-13T00:57:51.010Z,1020.45
2022-11-13T00:58:50.989Z,1020.42
2022-11-13T00:59:50.969Z,1020.41
2022-11-13T01:00:50.955Z,1020.36
2022-11-13T01:01:50.973Z,1020.40
2022-11-13T01:02:50.906Z,1020.36
2022-11-13T01:03:50.886Z,1020.43
2022-11-13T01:04:50.867Z,1020.40
2022-11-13T01:05:50.841Z,1020.37
2022-11-13T01:06:50.915Z,1020.38
2022-11-13T01:07:50.803Z,1020.36
2022-11-13T01:08:50.776Z,1020.36
2022-11-13T01:09:50.756Z,1020.40
2022-11-13T01:10:53.690Z,1020.36
2022-11-13T01:11:50.713Z,1020.40
2022-11-13T01:12:50.694Z,1020.39
2022-11-13T01:13:50.677Z,1020.39
2022-11-13T01:14:50.649Z,1020.41
2022-11-13T01:15:50.632Z,1020.41
2022-11-13T01:16:50.608Z,1020.41
2022-11-13T01:17:50.590Z,1020.41
2022-11-13T01:18:50.564Z,1020.42
2022-11-13T01:19:50.546Z,1020.43
2022-11-13T01:20:50.531Z,1020.46
2022-11-13T01:21:50.505Z,1020.47
2022-11-13T01:22:50.479Z,1020.48
2022-11-13T01:23:50.466Z,1020.47
2022-11-13T01:24:50.447Z,1020.45
2022-11-13T01:25:50.418Z,1020.46
2022-11-13T01:26:50.507Z,1020.45
2022-11-13T01:27:50.373Z,1020.41
2022-11-13T01:28:50.356Z,1020.42
2022-11-13T01:29:50.336Z,1020.44
2022-11-13T01:30:50.319Z,1020.42
2022-11-13T01:31:50.291Z,1020.41
2022-11-13T01:32:50.270Z,1020.37
2022-11-13T01:33:50.251Z,1020.40
2022-11-13T01:34:50.228Z,1020.40
2022-11-13T01:35:50.211Z,1020.42
2022-11-13T01:36:50.186Z,1020.39
2022-11-13T01:37:50.164Z,1020.38
2022-11-13T01:38:50.144Z,1020.37
2022-11-13T01:39:50.120Z,1020.36
2022-11-13T01:40:50.099Z,1020.35
2022-11-13T01:41:50.083Z,1020.34
2022-11-13T01:42:50.179Z,1020.31
2022-11-13T01:43:50.042Z,1020.34
2022-11-13T01:44:50.016Z,1020.33
2022-11-13T01:45:49.997Z,1020.34
2022-11-13T01:46:49.977Z,1020.33
2022-11-13T01:47:49.955Z,1020.35
2022-11-13T01:48:49.932Z,1020.34
2022-11-13T01:49:49.910Z,1020.30
2022-11-13T01:50:49.888Z,1020.29
2022-11-13T01:51:49.868Z,1020.25
2022-11-13T01:52:49.858Z,1020.26
2022-11-13T01:53:49.826Z,1020.25
2022-11-13T01:54:49.803Z,1020.22
2022-11-13T01:55:49.780Z,1020.22
2022-11-13T01:56:49.758Z,1020.20
2022-11-13T01:57:49.740Z,1020.18
2022-11-13T01:58:49.838Z,1020.16
2022-11-13T01:59:49.696Z,1020.19
2022-11-13T02:00:49.675Z,1020.17
2022-11-13T02:01:49.695Z,1020.16
2022-11-13T02:02:49.632Z,1020.19
2022-11-13T02:03:49.608Z,1020.13
2022-11-13T02:04:49.594Z,1020.14
2022-11-13T02:05:49.573Z,1020.12
2022-11-13T02:06:49.612Z,1020.14
2022-11-13T02:07:49.524Z,1020.13
2022-11-13T02:08:49.507Z,1020.16
2022-11-13T02:09:49.484Z,1020.13
2022-11-13T02:10:49.462Z,1020.16
2022-11-13T02:11:49.443Z,1020.15
2022-11-13T02:12:49.421Z,1020.15
2022-11-13T02:13:49.397Z,1020.15
2022-11-13T02:14:49.494Z,1020.11
2022-11-13T02:15:49.355Z,1020.09
2022-11-13T02:16:49.334Z,1020.02
2022-11-13T02:17:49.313Z,1020.02
2022-11-13T02:18:49.291Z,1019.99
2022-11-13T02:19:49.279Z,1020.00
2022-11-13T02:20:49.252Z,1019.93
2022-11-13T02:21:49.233Z,1019.94
2022-11-13T02:22:49.205Z,1019.95
2022-11-13T02:23:49.186Z,1019.92
2022-11-13T02:24:54.518Z,1019.89
2022-11-13T02:25:49.142Z,1019.87
2022-11-13T02:26:49.121Z,1019.87
2022-11-13T02:27:49.098Z,1019.86
2022-11-13T02:28:49.077Z,1019.86
2022-11-13T02:29:49.056Z,1019.84
2022-11-13T02:30:49.153Z,1019.85
2022-11-13T02:31:49.015Z,1019.85
2022-11-13T02:32:48.999Z,1019.88
2022-11-13T02:33:48.970Z,1019.90
2022-11-13T02:34:48.951Z,1019.90
2022-11-13T02:35:48.928Z,1019.90
2022-11-13T02:36:48.902Z,1019.88
2022-11-13T02:37:48.887Z,1019.86
2022-11-13T02:38:48.864Z,1019.85
2022-11-13T02:39:48.848Z,1019.85
2022-11-13T02:40:48.822Z,1019.83
2022-11-13T02:41:48.803Z,1019.86
2022-11-13T02:42:48.776Z,1019.83
2022-11-13T02:43:48.761Z,1019.84
2022-11-13T02:44:48.735Z,1019.81
2022-11-13T02:45:48.716Z,1019.78
2022-11-13T02:46:48.813Z,1019.74
2022-11-13T02:47:48.682Z,1019.76
2022-11-13T02:48:48.651Z,1019.75
2022-11-13T02:49:48.626Z,1019.78
2022-11-13T02:50:48.607Z,1019.75
2022-11-13T02:51:48.587Z,1019.76
2022-11-13T02:52:48.726Z,1019.78
2022-11-13T02:53:48.544Z,1019.70
2022-11-13T02:54:48.523Z,1019.71
2022-11-13T02:55:48.501Z,1019.65
2022-11-13T02:56:48.479Z,1019.65
2022-11-13T02:57:48.459Z,1019.61
2022-11-13T02:58:48.433Z,1019.61
2022-11-13T02:59:48.418Z,1019.61
2022-11-13T03:00:48.389Z,1019.62
2022-11-13T03:01:48.404Z,1019.62
2022-11-13T03:02:48.470Z,1019.59
2022-11-13T03:03:57.480Z,1019.61
2022-11-13T03:05:11.519Z,1019.61
2022-11-13T03:05:48.287Z,1019.60
2022-11-13T03:06:48.324Z,1019.62
2022-11-13T03:07:48.241Z,1019.60
2022-11-13T03:08:48.229Z,1019.60
2022-11-13T03:09:48.202Z,1019.60
2022-11-13T03:10:48.176Z,1019.56
2022-11-13T03:11:48.154Z,1019.58
2022-11-13T03:12:48.137Z,1019.54
2022-11-13T03:13:48.118Z,1019.51
2022-11-13T03:14:48.092Z,1019.51
2022-11-13T03:15:48.070Z,1019.50
2022-11-13T03:16:48.051Z,1019.50
2022-11-13T03:17:48.030Z,1019.47
2022-11-13T03:18:48.118Z,1019.50
2022-11-13T03:19:47.981Z,1019.48
2022-11-13T03:20:47.961Z,1019.48
2022-11-13T03:21:47.940Z,1019.47
2022-11-13T03:22:47.918Z,1019.45
2022-11-13T03:23:47.900Z,1019.47
2022-11-13T03:24:47.876Z,1019.48
2022-11-13T03:25:47.853Z,1019.46
2022-11-13T03:26:47.831Z,1019.41
2022-11-13T03:27:47.816Z,1019.43
2022-11-13T03:28:47.789Z,1019.47
2022-11-13T03:29:47.772Z,1019.43
2022-11-13T03:30:47.753Z,1019.45
2022-11-13T03:31:47.725Z,1019.45
2022-11-13T03:32:47.703Z,1019.42
2022-11-13T03:33:47.684Z,1019.42
2022-11-13T03:34:47.773Z,1019.38
2022-11-13T03:35:47.638Z,1019.39
2022-11-13T03:36:47.620Z,1019.39
2022-11-13T03:37:47.597Z,1019.36
2022-11-13T03:38:47.568Z,1019.36
2022-11-13T03:39:47.558Z,1019.38
2022-11-13T03:40:47.533Z,1019.40
2022-11-13T03:41:47.513Z,1019.36
2022-11-13T03:42:47.486Z,1019.35
2022-11-13T03:43:47.466Z,1019.31
2022-11-13T03:44:47.444Z,1019.30
2022-11-13T03:45:47.421Z,1019.27
2022-11-13T03:46:47.399Z,1019.30
2022-11-13T03:47:47.379Z,1019.25
2022-11-13T03:48:47.355Z,1019.29
2022-11-13T03:49:47.335Z,1019.30
2022-11-13T03:50:47.425Z,1019.31
2022-11-13T03:51:47.294Z,1019.33
2022-11-13T03:52:47.273Z,1019.34
2022-11-13T03:53:47.249Z,1019.33
2022-11-13T03:54:47.228Z,1019.31
2022-11-13T03:55:47.202Z,1019.31
2022-11-13T03:56:47.184Z,1019.31
2022-11-13T03:57:47.159Z,1019.30
2022-11-13T03:58:49.705Z,1019.27
2022-11-13T03:59:47.119Z,1019.30
2022-11-13T04:00:47.092Z,1019.29
2022-11-13T04:01:47.133Z,1019.25
2022-11-13T04:02:47.049Z,1019.26
2022-11-13T04:03:47.029Z,1019.27
2022-11-13T04:04:47.006Z,1019.25
2022-11-13T04:05:46.986Z,1019.22
2022-11-13T04:06:47.141Z,1019.24
2022-11-13T04:07:46.945Z,1019.19
2022-11-13T04:08:46.919Z,1019.22
2022-11-13T04:09:46.902Z,1019.19
2022-11-13T04:10:46.878Z,1019.22
2022-11-13T04:11:46.854Z,1019.22
2022-11-13T04:12:46.839Z,1019.18
2022-11-13T04:13:46.812Z,1019.16
2022-11-13T04:14:46.790Z,1019.16
2022-11-13T04:15:46.768Z,1019.15
2022-11-13T04:16:46.748Z,1019.15
2022-11-13T04:17:46.721Z,1019.12
2022-11-13T04:18:46.707Z,1019.14
2022-11-13T04:19:46.682Z,1019.10
2022-11-13T04:20:46.662Z,1019.11
2022-11-13T04:21:46.640Z,1019.07
2022-11-13T04:22:46.730Z,1019.04
2022-11-13T04:23:46.594Z,1019.04
2022-11-13T04:24:46.574Z,1019.04
2022-11-13T04:25:46.556Z,1019.01
2022-11-13T04:26:46.532Z,1019.05
2022-11-13T04:27:46.509Z,1019.05
2022-11-13T04:28:46.485Z,1019.03
2022-11-13T04:29:46.466Z,1019.05
2022-11-13T04:30:46.458Z,1018.99
2022-11-13T04:31:46.421Z,1018.99
2022-11-13T04:32:46.394Z,1018.98
2022-11-13T04:33:46.376Z,1018.96
2022-11-13T04:34:46.355Z,1018.96
2022-11-13T04:35:46.331Z,1018.97
2022-11-13T04:36:46.308Z,1018.97
2022-11-13T04:37:46.289Z,1018.95
2022-11-13T04:38:46.375Z,1018.94
2022-11-13T04:39:46.240Z,1018.95
2022-11-13T04:40:46.218Z,1018.94
2022-11-13T04:41:48.955Z,1018.90
2022-11-13T04:42:46.179Z,1018.92
2022-11-13T04:43:46.153Z,1018.89
2022-11-13T04:44:46.143Z,1018.91
2022-11-13T04:45:46.114Z,1018.89
2022-11-13T04:46:46.090Z,1018.87
2022-11-13T04:47:46.066Z,1018.86
2022-11-13T04:48:46.045Z,1018.86
2022-11-13T04:49:46.024Z,1018.87
2022-11-13T04:50:46.000Z,1018.93
2022-11-13T04:51:45.978Z,1018.90
2022-11-13T04:52:45.954Z,1018.91
2022-11-13T04:53:45.937Z,1018.87
2022-11-13T04:54:46.027Z,1018.84
2022-11-13T04:55:45.890Z,1018.81
2022-11-13T04:56:45.866Z,1018.78
2022-11-13T04:57:45.848Z,1018.77
2022-11-13T04:58:45.825Z,1018.79
2022-11-13T04:59:45.801Z,1018.77
2022-11-13T05:00:45.782Z,1018.76
2022-11-13T05:01:45.787Z,1018.77
2022-11-13T05:02:45.741Z,1018.73
2022-11-13T05:03:45.720Z,1018.74
2022-11-13T05:04:45.692Z,1018.73
2022-11-13T05:05:45.672Z,1018.71
2022-11-13T05:06:45.747Z,1018.74
2022-11-13T05:07:45.627Z,1018.70
2022-11-13T05:08:45.605Z,1018.76
2022-11-13T05:09:45.581Z,1018.76
2022-11-13T05:10:45.672Z,1018.75
2022-11-13T05:11:45.539Z,1018.75
2022-11-13T05:12:45.518Z,1018.70
2022-11-13T05:13:45.502Z,1018.76
2022-11-13T05:14:45.474Z,1018.70
2022-11-13T05:15:45.454Z,1018.71
2022-11-13T05:16:45.428Z,1018.67
2022-11-13T05:17:45.408Z,1018.65
2022-11-13T05:18:45.385Z,1018.67
2022-11-13T05:19:45.365Z,1018.66
2022-11-13T05:20:45.339Z,1018.64
2022-11-13T05:21:45.325Z,1018.60
2022-11-13T05:22:45.302Z,1018.56
2022-11-13T05:23:45.275Z,1018.57
2022-11-13T05:24:45.256Z,1018.57
2022-11-13T05:25:45.232Z,1018.56
2022-11-13T05:26:45.320Z,1018.54
2022-11-13T05:27:45.185Z,1018.55
2022-11-13T05:28:45.162Z,1018.54
2022-11-13T05:29:45.140Z,1018.54
2022-11-13T05:30:45.115Z,1018.54
2022-11-13T05:31:45.095Z,1018.52
2022-11-13T05:32:45.071Z,1018.49
2022-11-13T05:33:45.050Z,1018.52
2022-11-13T05:34:45.026Z,1018.48
2022-11-13T05:35:45.007Z,1018.45
2022-11-13T05:36:44.982Z,1018.45
2022-11-13T05:37:44.966Z,1018.49
2022-11-13T05:38:44.940Z,1018.48
2022-11-13T05:39:44.916Z,1018.45
2022-11-13T05:40:44.891Z,1018.48
2022-11-13T05:41:44.871Z,1018.51
2022-11-13T05:42:44.967Z,1018.49
2022-11-13T05:43:44.826Z,1018.44
2022-11-13T05:44:44.805Z,1018.46
2022-11-13T05:45:44.785Z,1018.49
2022-11-13T05:46:44.758Z,1018.52
2022-11-13T05:47:44.742Z,1018.50
2022-11-13T05:48:44.715Z,1018.52
2022-11-13T05:49:44.698Z,1018.50
2022-11-13T05:50:44.670Z,1018.52
2022-11-13T05:51:44.651Z,1018.54
2022-11-13T05:52:44.625Z,1018.52
2022-11-13T05:53:44.609Z,1018.50
2022-11-13T05:54:44.582Z,1018.50
2022-11-13T05:55:44.565Z,1018.48
2022-11-13T05:56:44.539Z,1018.42
2022-11-13T05:57:44.519Z,1018.38
2022-11-13T05:58:44.610Z,1018.35
2022-11-13T05:59:44.475Z,1018.32
2022-11-13T06:00:44.449Z,1018.37
2022-11-13T06:01:44.485Z,1018.38
2022-11-13T06:02:44.410Z,1018.35
2022-11-13T06:03:44.383Z,1018.35
2022-11-13T06:04:44.362Z,1018.33
2022-11-13T06:05:44.344Z,1018.33
2022-11-13T06:06:44.368Z,1018.32
2022-11-13T06:07:44.301Z,1018.31
2022-11-13T06:08:44.274Z,1018.28
2022-11-13T06:09:44.249Z,1018.24
2022-11-13T06:10:44.227Z,1018.24
2022-11-13T06:11:44.216Z,1018.24
2022-11-13T06:12:44.184Z,1018.24
2022-11-13T06:13:44.164Z,1018.19
2022-11-13T06:14:44.256Z,1018.18
2022-11-13T06:15:44.117Z,1018.18
2022-11-13T06:16:44.096Z,1018.19
2022-11-13T06:17:44.076Z,1018.21
2022-11-13T06:18:44.048Z,1018.17
2022-11-13T06:19:44.029Z,1018.19
2022-11-13T06:20:44.007Z,1018.17
2022-11-13T06:21:43.981Z,1018.17
2022-11-13T06:22:43.956Z,1018.15
2022-11-13T06:23:43.937Z,1018.16
2022-11-13T06:24:43.914Z,1018.19
2022-11-13T06:25:43.890Z,1018.14
2022-11-13T06:26:43.865Z,1018.14
2022-11-13T06:27:43.849Z,1018.11
2022-11-13T06:28:43.831Z,1018.17
2022-11-13T06:29:43.802Z,1018.12
2022-11-13T06:30:43.896Z,1018.13
2022-11-13T06:31:43.759Z,1018.11
2022-11-13T06:32:43.736Z,1018.13
2022-11-13T06:33:43.716Z,1018.11
2022-11-13T06:34:43.689Z,1018.12
2022-11-13T06:35:43.669Z,1018.13
2022-11-13T06:36:43.650Z,1018.10
2022-11-13T06:37:43.624Z,1018.10
2022-11-13T06:38:43.663Z,1018.08
2022-11-13T06:39:43.582Z,1018.06
2022-11-13T06:40:43.554Z,1018.03
2022-11-13T06:41:43.540Z,1018.06
2022-11-13T06:42:43.510Z,1018.06
2022-11-13T06:43:43.495Z,1018.04
2022-11-13T06:44:43.470Z,1018.05
2022-11-13T06:45:43.448Z,1018.06
2022-11-13T06:46:43.536Z,1018.01
2022-11-13T06:47:43.405Z,1017.99
2022-11-13T06:48:43.379Z,1018.01
2022-11-13T06:49:43.360Z,1018.00
2022-11-13T06:50:48.110Z,1017.99
2022-11-13T06:51:43.313Z,1018.05
2022-11-13T06:52:43.291Z,1018.03
2022-11-13T06:53:43.268Z,1018.04
2022-11-13T06:54:43.249Z,1018.05
2022-11-13T06:55:43.228Z,1018.06
2022-11-13T06:56:43.204Z,1018.03
2022-11-13T06:57:43.178Z,1018.06
2022-11-13T06:58:43.153Z,1018.03
2022-11-13T06:59:43.136Z,1018.02
2022-11-13T07:00:43.172Z,1018.01
2022-11-13T07:01:43.089Z,1018.04
2022-11-13T07:02:43.182Z,1018.04
2022-11-13T07:03:43.050Z,1018.01
2022-11-13T07:04:43.024Z,1017.98
2022-11-13T07:05:42.999Z,1017.97
2022-11-13T07:06:43.034Z,1017.98
2022-11-13T07:07:42.960Z,1017.99
2022-11-13T07:08:42.934Z,1017.95
2022-11-13T07:09:42.915Z,1017.95
2022-11-13T07:10:42.888Z,1017.96
2022-11-13T07:11:42.870Z,1017.93
2022-11-13T07:12:42.844Z,1017.95
2022-11-13T07:13:42.825Z,1017.94
2022-11-13T07:14:42.803Z,1017.95
2022-11-13T07:15:42.785Z,1017.92
2022-11-13T07:17:07.535Z,1017.90
2022-11-13T07:17:42.730Z,1017.89
2022-11-13T07:18:42.832Z,1017.89
2022-11-13T07:19:42.698Z,1017.91
2022-11-13T07:20:42.675Z,1017.86
2022-11-13T07:21:42.644Z,1017.87
2022-11-13T07:22:42.624Z,1017.84
2022-11-13T07:23:42.602Z,1017.88
2022-11-13T07:24:42.578Z,1017.85
2022-11-13T07:25:42.553Z,1017.88
2022-11-13T07:26:42.533Z,1017.86
2022-11-13T07:27:42.513Z,1017.87
2022-11-13T07:28:42.492Z,1017.88
2022-11-13T07:29:42.469Z,1017.89
2022-11-13T07:30:42.450Z,1017.87
2022-11-13T07:31:42.425Z,1017.85
2022-11-13T07:32:42.400Z,1017.85
2022-11-13T07:33:42.381Z,1017.85
2022-11-13T07:34:42.471Z,1017.84
2022-11-13T07:35:42.338Z,1017.84
2022-11-13T07:36:42.315Z,1017.84
2022-11-13T07:37:42.292Z,1017.84
2022-11-13T07:38:42.270Z,1017.87
2022-11-13T07:39:42.249Z,1017.82
2022-11-13T07:40:42.226Z,1017.78
2022-11-13T07:41:42.204Z,1017.78
2022-11-13T07:42:42.186Z,1017.88
2022-11-13T07:43:42.162Z,1017.80
2022-11-13T07:44:54.596Z,1017.85
2022-11-13T07:45:42.121Z,1017.83
2022-11-13T07:46:42.102Z,1017.84
2022-11-13T07:47:42.076Z,1017.82
2022-11-13T07:48:42.056Z,1017.84
2022-11-13T07:49:42.036Z,1017.87
2022-11-13T07:50:42.119Z,1017.80
2022-11-13T07:51:41.990Z,1017.83
2022-11-13T07:52:41.965Z,1017.81
2022-11-13T07:53:41.946Z,1017.83
2022-11-13T07:54:41.926Z,1017.84
2022-11-13T07:55:41.905Z,1017.81
2022-11-13T07:56:41.884Z,1017.87
2022-11-13T07:57:41.853Z,1017.85
2022-11-13T07:58:41.840Z,1017.81
2022-11-13T07:59:41.820Z,1017.82
2022-11-13T08:00:41.864Z,1017.83
2022-11-13T08:01:41.778Z,1017.82
2022-11-13T08:02:41.753Z,1017.83
2022-11-13T08:03:41.736Z,1017.84
2022-11-13T08:04:41.712Z,1017.80
2022-11-13T08:05:41.694Z,1017.79
2022-11-13T08:06:41.844Z,1017.76
2022-11-13T08:07:41.645Z,1017.75
2022-11-13T08:08:41.626Z,1017.76
2022-11-13T08:09:41.606Z,1017.75
2022-11-13T08:10:41.596Z,1017.72
2022-11-13T08:11:41.565Z,1017.70
2022-11-13T08:12:41.552Z,1017.66
2022-11-13T08:13:41.521Z,1017.68
2022-11-13T08:14:41.498Z,1017.73
2022-11-13T08:15:41.483Z,1017.71
2022-11-13T08:16:41.462Z,1017.70
2022-11-13T08:17:41.441Z,1017.72
2022-11-13T08:18:41.419Z,1017.78
2022-11-13T08:19:41.397Z,1017.73
2022-11-13T08:20:41.381Z,1017.77
2022-11-13T08:21:41.374Z,1017.78
2022-11-13T08:22:41.453Z,1017.76
2022-11-13T08:23:41.318Z,1017.71
2022-11-13T08:24:41.296Z,1017.72
2022-11-13T08:25:41.278Z,1017.69
2022-11-13T08:26:41.257Z,1017.71
2022-11-13T08:27:41.241Z,1017.67
2022-11-13T08:28:41.221Z,1017.66
2022-11-13T08:29:41.200Z,1017.67
2022-11-13T08:30:41.175Z,1017.66
2022-11-13T08:31:41.159Z,1017.64
2022-11-13T08:32:41.138Z,1017.69
2022-11-13T08:33:41.120Z,1017.79
2022-11-13T08:34:41.105Z,1017.84
2022-11-13T08:35:41.100Z,1017.81
2022-11-13T08:36:41.067Z,1017.87
2022-11-13T08:37:41.040Z,1018.03
2022-11-13T08:38:41.139Z,1018.23
2022-11-13T08:39:41.005Z,1018.21
2022-11-13T08:40:40.989Z,1018.28
2022-11-13T08:41:40.975Z,1018.37
2022-11-13T08:42:40.960Z,1018.36
2022-11-13T08:43:40.940Z,1018.32
2022-11-13T08:44:40.924Z,1018.36
2022-11-13T08:45:40.916Z,1018.39
2022-11-13T08:46:40.895Z,1018.41
2022-11-13T08:47:40.883Z,1018.41
2022-11-13T08:48:40.868Z,1018.36
2022-11-13T08:49:40.855Z,1018.35
2022-11-13T08:50:40.844Z,1018.33
2022-11-13T08:51:40.829Z,1018.38
2022-11-13T08:52:40.828Z,1018.45
2022-11-13T08:53:40.807Z,1018.47
2022-11-13T08:54:40.899Z,1018.55
2022-11-13T08:55:40.783Z,1018.31
2022-11-13T08:56:40.767Z,1018.37
2022-11-13T08:57:40.758Z,1018.39
2022-11-13T08:58:40.750Z,1018.34
2022-11-13T08:59:40.740Z,1018.36
2022-11-13T09:00:40.727Z,1018.33
2022-11-13T09:01:40.720Z,1018.29
2022-11-13T09:02:40.707Z,1018.32
2022-11-13T09:03:40.782Z,1018.31
2022-11-13T09:04:40.686Z,1018.37
2022-11-13T09:05:40.677Z,1018.51
2022-11-13T09:06:40.767Z,1018.45
2022-11-13T09:07:40.657Z,1018.35
2022-11-13T09:08:40.650Z,1018.35
2022-11-13T09:09:40.648Z,1018.34
2022-11-13T09:10:40.746Z,1018.41
2022-11-13T09:11:40.640Z,1018.44
2022-11-13T09:12:40.616Z,1018.46
2022-11-13T09:13:44.531Z,1018.48
2022-11-13T09:14:40.604Z,1018.48
2022-11-13T09:15:40.604Z,1018.51
2022-11-13T09:16:40.591Z,1018.52
2022-11-13T09:17:40.581Z,1018.52
2022-11-13T09:18:40.571Z,1018.54
2022-11-13T09:19:40.562Z,1018.62
2022-11-13T09:20:40.558Z,1018.64
2022-11-13T09:21:40.551Z,1018.68
2022-11-13T09:22:40.537Z,1018.66
2022-11-13T09:23:40.533Z,1018.64
2022-11-13T09:24:40.530Z,1018.64
2022-11-13T09:25:40.520Z,1018.71
2022-11-13T09:26:40.620Z,1018.56
2022-11-13T09:27:40.508Z,1018.34
2022-11-13T09:28:40.499Z,1018.36
2022-11-13T09:29:40.495Z,1018.28
2022-11-13T09:30:40.493Z,1018.19
2022-11-13T09:31:40.491Z,1018.62
2022-11-13T09:32:40.477Z,1018.72
2022-11-13T09:33:40.464Z,1018.73
2022-11-13T09:34:40.458Z,1018.74
2022-11-13T09:35:40.451Z,1018.66
2022-11-13T09:36:40.448Z,1018.72
2022-11-13T09:37:40.441Z,1018.77
2022-11-13T09:38:40.442Z,1018.79
2022-11-13T09:39:40.426Z,1018.74
2022-11-13T09:40:40.415Z,1018.75
2022-11-13T09:41:40.415Z,1018.82
2022-11-13T09:42:40.523Z,1018.91
2022-11-13T09:43:40.400Z,1018.93
2022-11-13T09:44:40.391Z,1019.02
2022-11-13T09:45:40.387Z,1019.03
2022-11-13T09:46:40.378Z,1019.09
2022-11-13T09:47:40.375Z,1019.14
2022-11-13T09:48:40.369Z,1019.27
2022-11-13T09:49:40.361Z,1019.30
2022-11-13T09:50:40.359Z,1019.38
2022-11-13T09:51:40.351Z,1019.40
2022-11-13T09:52:40.342Z,1019.49
2022-11-13T09:53:40.334Z,1019.66
2022-11-13T09:54:40.327Z,1019.68
2022-11-13T09:55:40.324Z,1019.65
2022-11-13T09:56:40.318Z,1019.70
2022-11-13T09:57:40.307Z,1019.74
2022-11-13T09:58:40.418Z,1019.73
2022-11-13T09:59:40.294Z,1019.76
2022-11-13T10:00:40.344Z,1019.63
2022-11-13T10:01:40.284Z,1019.25
2022-11-13T10:02:40.282Z,1018.33
2022-11-13T10:04:04.239Z,1018.35
2022-11-13T10:04:40.264Z,1019.14
2022-11-13T10:05:40.258Z,1019.35
2022-11-13T10:06:40.338Z,1019.23
2022-11-13T10:07:40.242Z,1019.21
2022-11-13T10:08:40.236Z,1019.18
2022-11-13T10:09:40.232Z,1019.02
2022-11-13T10:10:40.223Z,1018.90
2022-11-13T10:11:40.216Z,1018.86
2022-11-13T10:12:40.209Z,1018.91
2022-11-13T10:13:40.203Z,1018.87
2022-11-13T10:14:40.304Z,1018.77
2022-11-13T10:15:40.191Z,1018.83
2022-11-13T10:16:40.191Z,1018.87
2022-11-13T10:17:40.175Z,1018.87
2022-11-13T10:18:40.181Z,1018.79
2022-11-13T10:19:40.162Z,1018.81
2022-11-13T10:20:40.151Z,1018.78
2022-11-13T10:21:40.145Z,1018.78
2022-11-13T10:22:40.138Z,1018.87
2022-11-13T10:23:40.128Z,1018.85
2022-11-13T10:24:40.123Z,1018.88
2022-11-13T10:25:40.120Z,1018.82
2022-11-13T10:26:40.109Z,1018.72
2022-11-13T10:27:40.212Z,1018.58
2022-11-13T10:28:55.515Z,1018.44
2022-11-13T10:29:44.662Z,1018.32
2022-11-13T10:30:40.193Z,1018.20
2022-11-13T10:31:40.075Z,1018.07
2022-11-13T10:32:40.070Z,1018.04
2022-11-13T10:33:40.064Z,1017.93
2022-11-13T10:34:40.053Z,1017.89
2022-11-13T10:35:40.048Z,1017.80
2022-11-13T10:36:40.039Z,1017.74
2022-11-13T10:37:40.036Z,1017.67
2022-11-13T10:38:40.029Z,1017.61
2022-11-13T10:39:40.014Z,1017.56
2022-11-13T10:40:40.007Z,1017.64
2022-11-13T10:41:40.003Z,1017.63
2022-11-13T10:42:39.994Z,1017.66
2022-11-13T10:43:39.983Z,1017.71
2022-11-13T10:44:39.982Z,1017.71
2022-11-13T10:45:39.978Z,1017.68
2022-11-13T10:46:40.077Z,1017.69
2022-11-13T10:48:03.306Z,1017.66
2022-11-13T10:48:39.958Z,1017.50
2022-11-13T10:49:39.943Z,1017.30
2022-11-13T10:50:39.932Z,1017.13
2022-11-13T10:51:39.928Z,1017.05
2022-11-13T10:52:39.918Z,1017.00
2022-11-13T10:53:39.905Z,1016.93
2022-11-13T10:54:39.903Z,1016.90
2022-11-13T10:55:39.890Z,1016.88
2022-11-13T10:56:39.888Z,1016.85
2022-11-13T10:57:39.881Z,1016.81
2022-11-13T10:58:39.885Z,1016.80
2022-11-13T10:59:39.871Z,1016.80
2022-11-13T11:00:39.858Z,1016.77
2022-11-13T11:01:39.973Z,1016.75
2022-11-13T11:02:39.956Z,1016.74
2022-11-13T11:03:39.829Z,1016.73
2022-11-13T11:04:39.819Z,1016.71
2022-11-13T11:05:39.812Z,1016.70
2022-11-13T11:07:17.814Z,1016.65
2022-11-13T11:07:39.820Z,1016.66
2022-11-13T11:08:39.786Z,1016.66
2022-11-13T11:09:39.777Z,1016.60
2022-11-13T11:10:39.769Z,1016.61
2022-11-13T11:11:39.780Z,1016.60
2022-11-13T11:12:39.754Z,1016.61
2022-11-13T11:13:39.753Z,1016.64
2022-11-13T11:14:39.739Z,1016.55
2022-11-13T11:15:39.736Z,1016.55
2022-11-13T11:16:39.719Z,1016.52
2022-11-13T11:17:39.732Z,1016.47
2022-11-13T11:18:39.819Z,1016.45
2022-11-13T11:19:39.700Z,1016.43
2022-11-13T11:20:39.689Z,1016.39
2022-11-13T11:21:39.680Z,1016.38
2022-11-13T11:22:39.672Z,1016.36
2022-11-13T11:23:39.662Z,1016.38
2022-11-13T11:24:39.650Z,1016.36
2022-11-13T11:25:39.643Z,1016.31
2022-11-13T11:26:39.632Z,1016.34
2022-11-13T11:27:39.629Z,1016.31
2022-11-13T11:28:39.617Z,1016.27
2022-11-13T11:29:39.609Z,1016.24
2022-11-13T11:30:39.600Z,1016.22
2022-11-13T11:31:39.596Z,1016.22
2022-11-13T11:32:39.586Z,1016.21
2022-11-13T11:33:39.578Z,1016.19
2022-11-13T11:34:39.681Z,1016.23
2022-11-13T11:35:39.561Z,1016.18
2022-11-13T11:36:39.551Z,1016.21
2022-11-13T11:37:39.547Z,1016.17
2022-11-13T11:38:39.536Z,1016.18
2022-11-13T11:39:39.525Z,1016.14
2022-11-13T11:40:39.513Z,1016.11
2022-11-13T11:41:39.508Z,1016.13
2022-11-13T11:42:39.500Z,1016.15
2022-11-13T11:43:39.490Z,1016.11
2022-11-13T11:44:39.488Z,1016.10
2022-11-13T11:45:39.476Z,1016.09
2022-11-13T11:46:42.749Z,1016.07
2022-11-13T11:47:39.472Z,1016.08
2022-11-13T11:48:39.448Z,1016.08
2022-11-13T11:49:39.443Z,1016.06
2022-11-13T11:50:39.549Z,1016.04
2022-11-13T11:51:39.427Z,1016.05
2022-11-13T11:52:39.429Z,1016.02
2022-11-13T11:53:39.413Z,1015.98
2022-11-13T11:54:39.404Z,1016.00
2022-11-13T11:55:39.393Z,1016.01
2022-11-13T11:56:39.381Z,1016.01
2022-11-13T11:57:39.374Z,1016.00
2022-11-13T11:58:39.371Z,1016.00
2022-11-13T11:59:39.377Z,1015.96
2022-11-13T12:00:39.349Z,1015.97
2022-11-13T12:01:39.341Z,1015.93
2022-11-13T12:02:39.332Z,1015.94
2022-11-13T12:03:39.325Z,1015.90
2022-11-13T12:04:39.412Z,1015.92
2022-11-13T12:05:39.394Z,1015.91
2022-11-13T12:06:39.455Z,1015.86